Time;durP1;ratioP1;P1;durP2;ratioP2;P2;SDS_P1;SDS_P2;PMS_P1;PMS_P2;Temp;Humidity;BMP_temperature;BMP_pressure;BME280_temperature;BME280_humidity;BME280_pressure;Samples;Min_cycle;Max_cycle;Signal;HPM_P1;HPM_P2
2023/06/21 00:01:04;;;;;;;26.10;23.63;;;19.30;99.90;;;;;;7368830;19;20023;-82
2023/06/21 00:03:31;;;;;;;24.35;22.10;;;19.30;99.90;;;;;;7369833;19;20007;-83
2023/06/21 00:05:57;;;;;;;25.98;23.58;;;19.30;99.90;;;;;;7373846;19;20015;-82
2023/06/21 00:08:26;;;;;;;25.92;23.55;;;19.30;99.90;;;;;;7376708;19;20037;-83
2023/06/21 00:10:53;;;;;;;25.25;22.90;;;19.30;99.90;;;;;;7368172;19;20078;-82
2023/06/21 00:13:19;;;;;;;27.60;24.75;;;19.30;99.90;;;;;;7370683;19;20918;-83
2023/06/21 00:15:50;;;;;;;26.67;24.00;;;19.30;99.90;;;;;;7367931;19;20025;-82
2023/06/21 00:18:16;;;;;;;26.67;24.17;;;19.20;99.90;;;;;;7363392;19;20014;-82
2023/06/21 00:20:42;;;;;;;26.13;23.83;;;19.30;99.90;;;;;;7365736;19;20010;-82
2023/06/21 00:23:09;;;;;;;26.80;24.02;;;19.30;99.90;;;;;;7367876;19;20037;-82
2023/06/21 00:25:35;;;;;;;26.70;24.05;;;19.20;99.90;;;;;;7368186;19;20054;-83
2023/06/21 00:28:01;;;;;;;25.33;22.92;;;19.20;99.90;;;;;;7375074;19;20126;-82
2023/06/21 00:30:28;;;;;;;25.52;23.23;;;19.20;99.90;;;;;;7373790;19;20042;-82
2023/06/21 00:32:55;;;;;;;25.27;22.88;;;19.10;99.90;;;;;;7375091;19;20018;-82
2023/06/21 00:35:22;;;;;;;25.70;22.98;;;19.10;99.90;;;;;;7374507;19;20045;-82
2023/06/21 00:37:48;;;;;;;24.30;22.00;;;19.10;99.90;;;;;;7376082;19;20574;-82
2023/06/21 00:40:16;;;;;;;25.80;23.45;;;19.00;99.90;;;;;;7375481;19;20052;-82
2023/06/21 00:42:42;;;;;;;23.23;21.02;;;19.00;99.90;;;;;;7376075;19;20018;-82
2023/06/21 00:45:15;;;;;;;25.08;22.52;;;18.90;99.90;;;;;;7371090;19;20490;-82
2023/06/21 00:47:42;;;;;;;26.30;23.85;;;18.90;99.90;;;;;;7376446;19;20015;-82
2023/06/21 00:50:08;;;;;;;27.25;24.60;;;18.80;99.90;;;;;;7371963;19;20018;-82
2023/06/21 00:52:37;;;;;;;26.88;24.48;;;18.80;99.90;;;;;;7376050;19;20026;-82
2023/06/21 00:55:05;;;;;;;27.83;25.33;;;18.80;99.90;;;;;;7372969;19;20022;-82
2023/06/21 00:57:31;;;;;;;29.35;26.50;;;18.70;99.90;;;;;;7371891;19;20033;-82
2023/06/21 00:59:58;;;;;;;30.73;27.85;;;18.80;99.90;;;;;;7371766;19;20067;-82
2023/06/21 01:02:24;;;;;;;29.65;26.92;;;18.70;99.90;;;;;;7366306;19;20446;-82
2023/06/21 01:04:50;;;;;;;30.08;27.40;;;18.70;99.90;;;;;;7366775;19;20037;-83
2023/06/21 01:07:46;;;;;;;31.95;28.88;;;18.70;99.90;;;;;;7367025;19;20513;-82
2023/06/21 01:10:43;;;;;;;30.98;28.10;;;18.60;99.90;;;;;;7363286;19;20447;-82
2023/06/21 01:13:28;;;;;;;34.35;30.80;;;18.60;99.90;;;;;;7366665;19;20018;-82
2023/06/21 01:16:15;;;;;;;35.58;32.22;;;18.60;99.90;;;;;;7364616;19;20018;-82
2023/06/21 01:18:48;;;;;;;32.95;29.95;;;18.60;99.90;;;;;;7361318;19;20037;-82
2023/06/21 01:21:18;;;;;;;35.58;31.98;;;18.60;99.90;;;;;;7364255;19;20025;-82
2023/06/21 01:24:09;;;;;;;36.40;32.53;;;18.50;99.90;;;;;;7364631;19;20078;-82
2023/06/21 01:26:54;;;;;;;36.67;32.95;;;18.60;99.90;;;;;;7367643;19;20341;-83
2023/06/21 01:29:23;;;;;;;37.85;34.08;;;18.50;99.90;;;;;;7371320;19;20959;-82
2023/06/21 01:31:53;;;;;;;36.63;33.00;;;18.50;99.90;;;;;;7372977;19;20011;-82
2023/06/21 01:34:22;;;;;;;38.72;34.72;;;18.50;99.90;;;;;;7372505;19;20018;-82
2023/06/21 01:36:49;;;;;;;40.40;36.28;;;18.50;99.90;;;;;;7369887;19;20014;-82
2023/06/21 01:39:17;;;;;;;43.58;39.15;;;18.50;99.90;;;;;;7368193;19;20059;-82
2023/06/21 01:41:44;;;;;;;40.53;36.55;;;18.50;99.90;;;;;;7371366;19;20018;-82
2023/06/21 01:44:10;;;;;;;41.92;37.50;;;18.50;99.90;;;;;;7372085;19;20014;-81
2023/06/21 01:46:39;;;;;;;44.05;39.53;;;18.50;99.90;;;;;;7373195;19;20022;-82
2023/06/21 01:49:09;;;;;;;46.95;40.67;;;18.50;99.90;;;;;;7369649;19;20014;-82
2023/06/21 01:51:38;;;;;;;43.75;39.03;;;18.40;99.90;;;;;;7371180;19;20029;-82
2023/06/21 01:54:05;;;;;;;45.03;40.22;;;18.40;99.90;;;;;;7372781;19;20033;-82
2023/06/21 01:56:34;;;;;;;45.47;40.55;;;18.40;99.90;;;;;;7373139;19;20597;-82
2023/06/21 01:59:01;;;;;;;46.78;41.42;;;18.30;99.90;;;;;;7364124;19;20039;-82
2023/06/21 02:01:30;;;;;;;49.30;42.55;;;18.30;99.90;;;;;;7362802;19;20039;-82
2023/06/21 02:03:59;;;;;;;47.80;42.63;;;18.30;99.90;;;;;;7366055;19;20046;-82
2023/06/21 02:06:29;;;;;;;47.85;42.63;;;18.30;99.90;;;;;;7364194;19;20019;-82
2023/06/21 02:08:59;;;;;;;48.17;43.20;;;18.30;99.90;;;;;;7367346;19;20486;-82
2023/06/21 02:11:27;;;;;;;49.33;43.92;;;18.30;99.90;;;;;;7364916;19;20534;-83
2023/06/21 02:13:53;;;;;;;50.55;45.13;;;18.40;99.90;;;;;;7367023;19;20018;-82
2023/06/21 02:16:28;;;;;;;51.30;45.90;;;18.40;99.90;;;;;;7365188;19;20022;-82
2023/06/21 02:19:00;;;;;;;52.15;46.95;;;18.50;99.90;;;;;;7367931;19;20014;-82
2023/06/21 02:21:26;;;;;;;51.25;45.92;;;18.50;99.90;;;;;;7362553;19;21322;-83
2023/06/21 02:23:52;;;;;;;51.55;46.17;;;18.60;99.90;;;;;;7362175;19;20359;-82
2023/06/21 02:26:18;;;;;;;56.65;50.58;;;18.60;99.90;;;;;;7365462;19;20019;-82
2023/06/21 02:28:46;;;;;;;54.75;49.05;;;18.60;99.90;;;;;;7362980;19;20022;-83
2023/06/21 02:31:12;;;;;;;55.47;49.63;;;18.60;99.90;;;;;;7365794;19;20049;-83
2023/06/21 02:33:41;;;;;;;57.55;51.35;;;18.60;99.90;;;;;;7368067;19;20014;-82
2023/06/21 02:36:08;;;;;;;61.17;52.60;;;18.60;99.90;;;;;;7378917;19;20037;-83
2023/06/21 02:38:34;;;;;;;57.63;50.88;;;18.50;99.90;;;;;;7371052;19;20018;-82
2023/06/21 02:41:01;;;;;;;58.65;51.28;;;18.50;99.90;;;;;;7372672;19;20023;-82
2023/06/21 02:43:27;;;;;;;60.95;52.50;;;18.50;99.90;;;;;;7370794;19;20456;-82
2023/06/21 02:45:54;;;;;;;64.38;53.38;;;18.50;99.90;;;;;;7371670;19;20018;-82
2023/06/21 02:48:21;;;;;;;58.42;52.10;;;18.40;99.90;;;;;;7368747;19;20023;-82
2023/06/21 02:50:48;;;;;;;59.90;53.38;;;18.40;99.90;;;;;;7374297;19;20049;-82
2023/06/21 02:53:14;;;;;;;60.55;51.75;;;18.30;99.90;;;;;;7369288;19;20804;-82
2023/06/21 02:55:42;;;;;;;59.38;50.67;;;18.30;99.90;;;;;;7372233;19;20018;-82
2023/06/21 02:58:08;;;;;;;59.05;52.15;;;18.30;99.90;;;;;;7368368;19;20023;-82
2023/06/21 03:00:37;;;;;;;59.35;51.70;;;18.20;99.90;;;;;;7372751;19;20070;-82
2023/06/21 03:03:03;;;;;;;57.55;51.33;;;18.20;99.90;;;;;;7368420;19;20018;-82
2023/06/21 03:05:36;;;;;;;61.25;50.40;;;18.20;99.90;;;;;;7370620;19;20018;-82
2023/06/21 03:08:14;;;;;;;60.03;50.60;;;18.20;99.90;;;;;;7372359;19;20375;-82
2023/06/21 03:10:46;;;;;;;61.25;52.38;;;18.20;99.90;;;;;;7368249;19;20018;-82
2023/06/21 03:13:12;;;;;;;59.78;51.20;;;18.20;99.90;;;;;;7370115;19;20021;-82
2023/06/21 03:15:38;;;;;;;61.70;52.85;;;18.20;99.90;;;;;;7370855;19;20019;-82
2023/06/21 03:18:05;;;;;;;60.03;52.20;;;18.20;99.90;;;;;;7370075;19;20034;-82
2023/06/21 03:20:32;;;;;;;64.10;52.55;;;18.20;99.90;;;;;;7369352;19;20601;-82
2023/06/21 03:23:00;;;;;;;60.38;53.88;;;18.10;99.90;;;;;;7370415;19;20015;-82
2023/06/21 03:25:27;;;;;;;66.00;53.60;;;18.10;99.90;;;;;;7372587;19;20665;-82
2023/06/21 03:27:54;;;;;;;64.80;55.50;;;18.10;99.90;;;;;;7378162;19;20039;-82
2023/06/21 03:30:21;;;;;;;65.05;53.72;;;18.10;99.90;;;;;;7377286;19;20011;-82
2023/06/21 03:32:47;;;;;;;67.30;54.05;;;18.10;99.90;;;;;;7379349;19;20082;-82
2023/06/21 03:35:19;;;;;;;64.65;53.97;;;18.10;99.90;;;;;;7379515;19;20454;-82
2023/06/21 03:37:47;;;;;;;63.92;54.50;;;18.10;99.90;;;;;;7377513;19;20045;-82
2023/06/21 03:40:14;;;;;;;70.13;56.97;;;18.10;99.90;;;;;;7378358;19;20465;-81
2023/06/21 03:42:45;;;;;;;69.20;54.40;;;18.10;99.90;;;;;;7375696;19;20045;-82
2023/06/21 03:45:13;;;;;;;65.40;54.97;;;18.10;99.90;;;;;;7375077;19;20038;-82
2023/06/21 03:47:40;;;;;;;65.72;55.72;;;18.10;99.90;;;;;;7375618;19;20015;-82
2023/06/21 03:50:08;;;;;;;68.93;56.83;;;18.10;99.90;;;;;;7375724;19;20019;-82
2023/06/21 03:52:38;;;;;;;67.97;53.25;;;18.10;99.90;;;;;;7377062;19;20026;-82
2023/06/21 03:55:06;;;;;;;69.55;56.55;;;18.10;99.90;;;;;;7376131;19;20482;-82
2023/06/21 03:57:32;;;;;;;65.47;54.95;;;18.00;99.90;;;;;;7371159;19;20022;-82
2023/06/21 03:59:58;;;;;;;64.78;56.05;;;18.00;99.90;;;;;;7366320;19;20041;-82
2023/06/21 04:02:26;;;;;;;67.90;57.17;;;18.00;99.90;;;;;;7365045;19;20018;-82
2023/06/21 04:04:54;;;;;;;64.53;57.15;;;18.00;99.90;;;;;;7369048;19;20124;-82
2023/06/21 04:07:23;;;;;;;65.32;55.28;;;18.00;99.90;;;;;;7366651;19;20566;-81
2023/06/21 04:09:50;;;;;;;65.80;55.35;;;18.00;99.90;;;;;;7369100;19;20018;-82
2023/06/21 04:12:16;;;;;;;61.90;54.03;;;18.00;99.90;;;;;;7366987;19;20018;-81
2023/06/21 04:14:42;;;;;;;61.65;54.33;;;18.10;99.90;;;;;;7367862;19;20592;-82
2023/06/21 04:17:09;;;;;;;66.55;55.88;;;18.10;99.90;;;;;;7366496;19;20011;-81
2023/06/21 04:19:35;;;;;;;65.22;57.63;;;18.10;99.90;;;;;;7363691;19;20018;-82
2023/06/21 04:22:01;;;;;;;63.13;56.28;;;18.10;99.90;;;;;;7364648;19;20015;-83
2023/06/21 04:24:28;;;;;;;65.72;57.00;;;18.20;99.90;;;;;;7366295;19;20022;-81
2023/06/21 04:26:57;;;;;;;62.03;55.28;;;18.20;99.90;;;;;;7373039;19;20018;-77
2023/06/21 04:29:26;;;;;;;62.17;55.38;;;18.20;99.90;;;;;;7369918;19;20523;-80
2023/06/21 04:31:52;;;;;;;64.40;57.55;;;18.30;99.90;;;;;;7373164;19;20018;-81
2023/06/21 04:34:19;;;;;;;59.80;53.53;;;18.40;99.90;;;;;;7375562;19;20125;-80
2023/06/21 04:36:47;;;;;;;60.50;54.17;;;18.50;99.90;;;;;;7371661;19;20022;-82
2023/06/21 04:39:17;;;;;;;59.50;53.22;;;18.50;99.90;;;;;;7372379;19;20053;-81
2023/06/21 04:41:46;;;;;;;59.90;53.75;;;18.50;99.90;;;;;;7371974;19;20022;-81
2023/06/21 04:44:13;;;;;;;61.67;55.40;;;18.60;99.90;;;;;;7372505;19;20084;-80
2023/06/21 04:46:39;;;;;;;58.00;52.10;;;18.60;99.90;;;;;;7372585;19;20038;-81
2023/06/21 04:49:07;;;;;;;59.90;53.85;;;18.70;99.90;;;;;;7371015;19;20026;-80
2023/06/21 04:51:34;;;;;;;61.88;55.10;;;18.70;99.90;;;;;;7369581;19;20018;-79
2023/06/21 04:54:00;;;;;;;60.63;54.38;;;18.70;99.90;;;;;;7368903;19;20015;-80
2023/06/21 04:56:27;;;;;;;57.95;51.80;;;18.70;99.90;;;;;;7369665;19;20098;-81
2023/06/21 04:58:54;;;;;;;56.67;50.83;;;18.70;99.90;;;;;;7366566;19;20018;-80
2023/06/21 05:01:20;;;;;;;57.45;51.33;;;18.80;99.90;;;;;;7369347;19;20027;-80
2023/06/21 05:03:51;;;;;;;60.30;53.90;;;18.80;99.90;;;;;;7372633;19;20078;-81
2023/06/21 05:06:22;;;;;;;58.72;52.72;;;18.80;99.90;;;;;;7374437;19;20022;-80
2023/06/21 05:08:48;;;;;;;60.88;54.15;;;18.80;99.90;;;;;;7372365;19;20034;-80
2023/06/21 05:11:14;;;;;;;58.50;52.70;;;18.90;99.90;;;;;;7371299;19;20053;-80
2023/06/21 05:13:42;;;;;;;57.83;51.65;;;18.90;99.90;;;;;;7369268;19;20019;-80
2023/06/21 05:16:08;;;;;;;60.42;54.13;;;18.90;99.90;;;;;;7371350;19;20037;-80
2023/06/21 05:18:35;;;;;;;61.70;55.10;;;19.00;99.90;;;;;;7370623;19;20022;-80
2023/06/21 05:21:02;;;;;;;61.72;55.15;;;19.10;99.90;;;;;;7366819;19;20045;-82
2023/06/21 05:23:28;;;;;;;61.53;55.00;;;19.10;99.90;;;;;;7370531;19;20052;-83
2023/06/21 05:25:54;;;;;;;65.40;58.38;;;19.00;99.90;;;;;;7373255;19;20086;-84
2023/06/21 05:28:21;;;;;;;61.65;54.92;;;19.00;99.90;;;;;;7372905;19;20057;-83
2023/06/21 05:30:47;;;;;;;61.35;54.90;;;19.10;99.90;;;;;;7370155;19;20799;-84
2023/06/21 05:33:14;;;;;;;65.10;58.20;;;19.00;99.90;;;;;;7371598;19;20019;-83
2023/06/21 05:35:41;;;;;;;63.05;56.50;;;19.10;99.90;;;;;;7374412;19;20497;-84
2023/06/21 05:38:08;;;;;;;61.65;55.08;;;19.20;99.90;;;;;;7371619;19;20365;-85
2023/06/21 05:40:35;;;;;;;62.17;55.58;;;19.20;99.90;;;;;;7372516;19;20014;-84
2023/06/21 05:43:01;;;;;;;60.90;54.53;;;19.20;99.90;;;;;;7372552;19;20037;-84
2023/06/21 05:45:29;;;;;;;60.50;54.30;;;19.20;99.90;;;;;;7359600;19;20793;-82
2023/06/21 05:47:58;;;;;;;57.47;51.38;;;19.30;99.90;;;;;;7366814;19;20018;-84
2023/06/21 05:50:24;;;;;;;59.20;52.95;;;19.30;99.90;;;;;;7367989;19;20038;-85
2023/06/21 05:52:51;;;;;;;58.45;52.30;;;19.40;99.90;;;;;;7367395;19;20025;-84
2023/06/21 05:55:17;;;;;;;57.13;51.30;;;19.50;99.90;;;;;;7369468;19;20018;-85
2023/06/21 05:57:44;;;;;;;55.05;49.28;;;19.60;99.90;;;;;;7368041;19;20010;-84
2023/06/21 06:00:11;;;;;;;53.58;48.28;;;19.60;99.90;;;;;;7366184;19;20063;-82
2023/06/21 06:02:45;;;;;;;53.33;48.13;;;19.70;99.90;;;;;;7368479;19;20022;-84
2023/06/21 06:05:12;;;;;;;52.90;47.78;;;19.80;99.90;;;;;;7366030;19;20356;-85
2023/06/21 06:07:38;;;;;;;48.58;43.67;;;19.80;99.90;;;;;;7368857;19;20019;-85
2023/06/21 06:10:05;;;;;;;51.63;46.50;;;19.80;99.90;;;;;;7365043;19;20022;-84
2023/06/21 06:12:35;;;;;;;49.10;44.30;;;19.90;99.90;;;;;;7366505;19;20693;-85
2023/06/21 06:15:01;;;;;;;48.15;43.35;;;20.00;99.90;;;;;;7372519;19;20019;-85
2023/06/21 06:17:30;;;;;;;46.70;42.05;;;20.20;99.90;;;;;;7372770;19;20022;-86
2023/06/21 06:19:56;;;;;;;47.45;42.67;;;20.20;99.90;;;;;;7374600;19;20014;-84
2023/06/21 06:22:22;;;;;;;42.85;38.67;;;20.30;99.90;;;;;;7369250;19;20022;-84
2023/06/21 06:24:50;;;;;;;44.40;40.20;;;20.40;99.90;;;;;;7369960;19;20620;-85
2023/06/21 06:27:19;;;;;;;42.95;38.75;;;20.60;99.90;;;;;;7371983;19;20019;-84
2023/06/21 06:29:46;;;;;;;42.40;38.35;;;20.80;99.90;;;;;;7371830;19;20034;-85
2023/06/21 06:32:12;;;;;;;41.13;37.20;;;21.00;99.90;;;;;;7370298;19;20022;-84
2023/06/21 06:34:39;;;;;;;39.03;35.33;;;21.00;99.90;;;;;;7371982;19;20678;-85
2023/06/21 06:37:06;;;;;;;37.20;33.70;;;21.30;99.90;;;;;;7372170;19;20026;-83
2023/06/21 06:39:33;;;;;;;34.92;31.48;;;21.30;99.90;;;;;;7371547;19;20018;-83
2023/06/21 06:41:59;;;;;;;31.38;28.45;;;21.50;99.90;;;;;;7371958;19;20509;-85
2023/06/21 06:44:26;;;;;;;31.40;28.60;;;21.70;99.90;;;;;;7371360;19;20026;-85
2023/06/21 06:46:52;;;;;;;29.55;26.65;;;21.80;99.90;;;;;;7373601;19;20355;-85
2023/06/21 06:49:19;;;;;;;27.95;25.45;;;21.90;99.90;;;;;;7370052;19;20063;-83
2023/06/21 06:51:46;;;;;;;28.38;25.40;;;22.20;99.90;;;;;;7371756;19;20147;-84
2023/06/21 06:54:13;;;;;;;22.42;20.27;;;22.50;99.90;;;;;;7370198;19;20022;-84
2023/06/21 06:56:39;;;;;;;20.75;18.75;;;22.50;99.90;;;;;;7373581;19;20015;-83
2023/06/21 06:59:05;;;;;;;24.40;22.17;;;22.60;99.90;;;;;;7366417;19;20265;-84
2023/06/21 07:01:32;;;;;;;18.42;16.58;;;22.70;99.90;;;;;;7371349;19;20600;-84
2023/06/21 07:03:59;;;;;;;15.13;13.63;;;22.80;99.90;;;;;;7368561;19;20053;-84
2023/06/21 07:06:26;;;;;;;15.10;13.57;;;23.10;99.90;;;;;;7371852;19;20111;-83
2023/06/21 07:08:52;;;;;;;15.73;13.07;;;23.10;99.90;;;;;;7371534;19;20050;-80
2023/06/21 07:11:18;;;;;;;14.00;12.52;;;23.40;99.90;;;;;;7366627;19;20023;-84
2023/06/21 07:13:45;;;;;;;10.75;9.65;;;23.40;99.90;;;;;;7369122;19;20078;-82
2023/06/21 07:16:14;;;;;;;11.48;9.98;;;23.60;99.90;;;;;;7371208;19;20041;-80
2023/06/21 07:18:44;;;;;;;10.55;9.45;;;23.80;99.90;;;;;;7369956;19;20028;-83
2023/06/21 07:21:10;;;;;;;10.75;9.65;;;23.90;99.90;;;;;;7373697;19;20034;-83
2023/06/21 07:23:36;;;;;;;9.68;8.75;;;24.10;99.90;;;;;;7377165;19;20024;-83
2023/06/21 07:26:03;;;;;;;9.93;8.60;;;24.20;99.90;;;;;;7377772;19;20018;-83
2023/06/21 07:28:29;;;;;;;10.38;8.52;;;23.90;99.90;;;;;;7376920;19;20014;-83
2023/06/21 07:30:56;;;;;;;9.52;8.48;;;23.80;99.90;;;;;;7376957;19;21181;-82
2023/06/21 07:33:22;;;;;;;12.07;9.68;;;23.90;99.90;;;;;;7377759;19;20013;-83
2023/06/21 07:35:48;;;;;;;8.98;8.02;;;24.00;99.90;;;;;;7377914;19;20022;-83
2023/06/21 07:38:18;;;;;;;9.05;7.30;;;24.40;99.90;;;;;;7376863;19;20022;-83
2023/06/21 07:40:44;;;;;;;9.00;7.88;;;24.60;99.90;;;;;;7373999;19;20078;-83
2023/06/21 07:43:13;;;;;;;9.15;7.78;;;24.90;99.90;;;;;;7377315;19;20093;-83
2023/06/21 07:45:41;;;;;;;8.73;7.85;;;25.00;99.90;;;;;;7379175;19;20026;-84
2023/06/21 07:48:08;;;;;;;8.50;7.40;;;25.30;99.90;;;;;;7376673;19;20013;-83
2023/06/21 07:50:34;;;;;;;11.40;7.97;;;25.40;99.90;;;;;;7375182;19;20029;-84
2023/06/21 07:53:01;;;;;;;10.23;8.50;;;25.50;99.90;;;;;;7376274;19;20031;-83
2023/06/21 07:55:28;;;;;;;8.75;7.35;;;25.70;99.90;;;;;;7378154;19;20018;-84
2023/06/21 07:57:54;;;;;;;8.73;7.22;;;25.70;99.90;;;;;;7377762;19;20022;-83
2023/06/21 08:00:21;;;;;;;10.48;7.53;;;25.90;99.90;;;;;;7378234;19;20025;-83
2023/06/21 08:02:52;;;;;;;9.05;7.20;;;25.80;99.90;;;;;;7376424;19;20024;-84
2023/06/21 08:05:18;;;;;;;;;;;25.80;99.90;;;;;;7376913;19;20109;-84
2023/06/21 08:07:45;;;;;;;9.68;8.30;;;25.50;99.90;;;;;;7376772;19;19915;-83
2023/06/21 08:10:12;;;;;;;11.90;7.75;;;25.50;99.90;;;;;;7373356;19;20929;-84
2023/06/21 08:12:39;;;;;;;8.25;7.45;;;25.60;99.90;;;;;;7372987;19;20022;-83
2023/06/21 08:15:06;;;;;;;8.95;7.18;;;25.40;99.90;;;;;;7371055;19;20028;-84
2023/06/21 08:17:33;;;;;;;8.23;6.10;;;25.40;99.90;;;;;;7377673;19;20029;-83
2023/06/21 08:20:03;;;;;;;7.85;6.20;;;25.70;99.90;;;;;;7370503;19;20011;-84
2023/06/21 08:22:30;;;;;;;8.05;6.53;;;25.80;99.90;;;;;;7374277;19;20473;-83
2023/06/21 08:24:59;;;;;;;7.78;6.30;;;26.00;99.90;;;;;;7372208;19;20535;-83
2023/06/21 08:27:25;;;;;;;8.38;6.13;;;26.50;99.90;;;;;;7375535;19;20029;-83
2023/06/21 08:29:52;;;;;;;9.80;5.50;;;26.70;99.90;;;;;;7366512;19;20652;-82
2023/06/21 08:32:19;;;;;;;7.70;5.18;;;26.70;99.90;;;;;;7374179;19;20063;-83
2023/06/21 08:34:47;;;;;;;7.95;4.88;;;26.70;99.90;;;;;;7376538;19;20017;-84
2023/06/21 08:37:13;;;;;;;6.55;4.82;;;26.80;99.90;;;;;;7374402;19;20022;-82
2023/06/21 08:39:39;;;;;;;9.55;6.57;;;27.20;99.90;;;;;;7373573;19;20022;-82
2023/06/21 08:42:06;;;;;;;7.38;5.18;;;27.00;99.90;;;;;;7372669;19;20287;-82
2023/06/21 08:44:32;;;;;;;6.30;5.15;;;26.60;99.90;;;;;;7375969;19;20026;-82
2023/06/21 08:47:03;;;;;;;5.00;4.30;;;26.40;99.90;;;;;;7373976;19;20021;-82
2023/06/21 08:49:31;;;;;;;5.90;4.35;;;26.40;99.90;;;;;;7374630;19;20019;-85
2023/06/21 08:51:59;;;;;;;6.72;4.40;;;26.60;99.90;;;;;;7369970;19;20499;-81
2023/06/21 08:54:29;;;;;;;7.32;4.57;;;26.50;99.90;;;;;;7370233;19;20015;-83
2023/06/21 08:57:03;;;;;;;7.15;4.75;;;26.70;99.90;;;;;;7373242;19;20018;-81
2023/06/21 08:59:50;;;;;;;72.30;66.25;;;27.10;99.90;;;;;;7372347;19;20019;-79
2023/06/21 09:02:20;;;;;;;6.78;5.78;;;26.90;99.90;;;;;;7367921;19;20035;-80
2023/06/21 09:04:49;;;;;;;8.05;5.57;;;26.70;99.90;;;;;;7363878;19;20021;-79
2023/06/21 09:07:16;;;;;;;12.80;11.45;;;26.50;99.90;;;;;;7362061;19;20026;-81
2023/06/21 09:09:46;;;;;;;10.82;8.18;;;26.30;99.90;;;;;;7374305;19;20045;-81
2023/06/21 09:12:16;;;;;;;7.97;5.90;;;26.20;99.90;;;;;;7373750;19;20025;-81
2023/06/21 09:14:43;;;;;;;13.65;10.43;;;26.00;99.90;;;;;;7374676;19;20274;-81
2023/06/21 09:17:11;;;;;;;4.80;3.72;;;26.30;99.90;;;;;;7374080;19;20594;-81
2023/06/21 09:19:37;;;;;;;17.27;15.65;;;26.60;99.90;;;;;;7374732;19;20022;-81
2023/06/21 09:22:04;;;;;;;12.10;10.88;;;26.50;99.90;;;;;;7370916;19;20042;-79
2023/06/21 09:24:30;;;;;;;10.40;8.63;;;26.30;99.90;;;;;;7374075;19;20852;-82
2023/06/21 09:26:58;;;;;;;9.38;7.70;;;26.60;99.90;;;;;;7372158;19;20114;-81
2023/06/21 09:29:25;;;;;;;10.07;8.23;;;26.50;99.90;;;;;;7361430;19;20037;-80
2023/06/21 09:31:56;;;;;;;22.67;20.60;;;26.40;99.90;;;;;;7366835;19;20028;-79
2023/06/21 09:34:23;;;;;;;8.77;7.75;;;26.30;99.90;;;;;;7370121;19;20049;-80
2023/06/21 09:36:53;;;;;;;6.43;5.03;;;26.40;99.90;;;;;;7356376;19;20558;-79
2023/06/21 09:39:24;;;;;;;6.63;4.95;;;26.30;99.90;;;;;;7368198;19;20018;-79
2023/06/21 09:41:57;;;;;;;8.02;5.88;;;26.50;99.90;;;;;;7358420;19;20031;-79
2023/06/21 09:44:27;;;;;;;8.50;5.15;;;26.30;99.90;;;;;;7369981;19;20025;-79
2023/06/21 09:47:01;;;;;;;8.10;6.35;;;26.20;99.90;;;;;;7373446;19;20011;-78
2023/06/21 09:49:29;;;;;;;7.68;4.63;;;26.50;99.90;;;;;;7373134;19;20018;-77
2023/06/21 09:51:58;;;;;;;7.83;4.83;;;26.80;99.90;;;;;;7371594;19;20036;-79
2023/06/21 09:54:24;;;;;;;33.00;30.05;;;27.30;99.90;;;;;;7374456;19;20295;-79
2023/06/21 09:56:51;;;;;;;15.50;14.13;;;27.80;99.90;;;;;;7370314;19;20015;-80
2023/06/21 09:59:19;;;;;;;20.98;19.00;;;28.30;99.90;;;;;;7367823;19;20475;-79
2023/06/21 10:01:49;;;;;;;6.47;4.55;;;28.70;99.90;;;;;;7370472;19;21284;-79
2023/06/21 10:04:17;;;;;;;6.82;4.10;;;29.10;99.90;;;;;;7369917;19;20025;-79
2023/06/21 10:06:51;;;;;;;10.07;9.05;;;29.20;97.50;;;;;;7368304;19;20022;-80
2023/06/21 10:09:18;;;;;;;6.05;4.43;;;29.50;93.40;;;;;;7368520;19;20109;-80
2023/06/21 10:11:45;;;;;;;6.65;5.30;;;29.60;90.30;;;;;;7370485;19;20022;-79
2023/06/21 10:14:22;;;;;;;8.57;7.70;;;29.30;91.40;;;;;;7368581;19;20010;-79
2023/06/21 10:16:51;;;;;;;6.43;5.80;;;29.70;91.10;;;;;;7369425;19;20022;-79
2023/06/21 10:19:32;;;;;;;5.35;2.95;;;29.20;90.50;;;;;;7371921;19;20911;-79
2023/06/21 10:22:05;;;;;;;6.40;4.30;;;29.80;86.00;;;;;;7370494;19;20046;-79
2023/06/21 10:24:52;;;;;;;5.13;4.63;;;29.70;84.70;;;;;;7368468;19;20023;-79
2023/06/21 10:27:20;;;;;;;7.30;3.28;;;29.70;76.60;;;;;;7367819;19;20066;-79
2023/06/21 10:29:56;;;;;;;5.05;4.35;;;29.70;79.10;;;;;;7367292;19;20037;-79
2023/06/21 10:32:23;;;;;;;8.02;3.15;;;30.10;80.60;;;;;;7371438;19;20842;-78
2023/06/21 10:35:12;;;;;;;6.45;5.70;;;29.90;79.20;;;;;;7368358;19;20120;-78
2023/06/21 10:37:52;;;;;;;5.93;3.67;;;29.70;76.60;;;;;;7371887;19;20026;-79
2023/06/21 10:40:21;;;;;;;9.43;4.88;;;30.10;77.60;;;;;;7367080;19;20019;-79
2023/06/21 10:42:49;;;;;;;31.15;28.52;;;30.20;78.40;;;;;;7370662;19;20015;-79
2023/06/21 10:45:17;;;;;;;9.80;8.77;;;30.40;75.60;;;;;;7365974;19;20022;-81
2023/06/21 10:47:46;;;;;;;8.55;7.65;;;30.30;73.40;;;;;;7364930;19;20018;-79
2023/06/21 10:50:13;;;;;;;7.00;4.20;;;30.30;75.40;;;;;;7369691;19;20018;-80
2023/06/21 10:52:40;;;;;;;5.00;3.90;;;29.90;73.10;;;;;;7367855;19;20082;-79
2023/06/21 10:55:07;;;;;;;4.35;3.45;;;29.40;74.00;;;;;;7373749;19;20022;-78
2023/06/21 10:57:35;;;;;;;6.35;4.90;;;29.50;76.20;;;;;;7376948;19;20022;-80
2023/06/21 11:00:07;;;;;;;10.00;9.05;;;29.30;75.00;;;;;;7369237;19;20021;-81
2023/06/21 11:02:35;;;;;;;23.65;21.42;;;28.90;73.60;;;;;;7381006;19;20018;-80
2023/06/21 11:05:21;;;;;;;6.15;3.55;;;29.20;73.10;;;;;;7377054;19;20018;-79
2023/06/21 11:08:04;;;;;;;14.43;13.18;;;29.90;73.40;;;;;;7376784;19;20025;-79
2023/06/21 11:10:40;;;;;;;7.60;4.88;;;29.60;73.10;;;;;;7377991;19;20098;-80
2023/06/21 11:13:07;;;;;;;5.13;3.80;;;29.40;71.90;;;;;;7375499;19;20045;-79
2023/06/21 11:15:39;;;;;;;5.80;3.47;;;29.60;72.00;;;;;;7377933;19;20106;-79
2023/06/21 11:18:06;;;;;;;5.50;4.30;;;29.80;72.10;;;;;;7372348;19;20086;-79
2023/06/21 11:20:47;;;;;;;6.15;3.67;;;29.50;71.00;;;;;;7377355;19;20375;-79
2023/06/21 11:23:17;;;;;;;;;;;29.20;70.10;;;;;;7377561;19;20690;-79
2023/06/21 11:26:03;;;;;;;5.87;3.70;;;29.20;73.80;;;;;;7376604;19;20473;-79
2023/06/21 11:28:33;;;;;;;5.95;4.93;;;29.20;71.70;;;;;;7373131;19;20035;-79
2023/06/21 11:31:06;;;;;;;6.40;4.13;;;29.70;68.20;;;;;;7378354;19;20011;-80
2023/06/21 11:33:50;;;;;;;4.95;3.33;;;29.60;68.40;;;;;;7376719;19;20491;-80
2023/06/21 11:36:35;;;;;;;4.65;3.38;;;29.70;65.90;;;;;;7366629;19;20018;-80
2023/06/21 11:39:01;;;;;;;5.00;2.58;;;30.20;65.60;;;;;;7368798;19;20041;-79
2023/06/21 11:41:54;;;;;;;4.25;2.47;;;30.30;66.20;;;;;;7371384;19;20029;-79
2023/06/21 11:44:23;;;;;;;4.47;2.85;;;30.00;65.20;;;;;;7364141;19;20771;-80
2023/06/21 11:46:50;;;;;;;4.65;2.70;;;30.40;65.90;;;;;;7369270;19;20054;-87
2023/06/21 11:49:17;;;;;;;6.80;6.05;;;30.10;63.50;;;;;;7370539;19;21568;-84
2023/06/21 11:52:02;;;;;;;4.35;2.92;;;30.40;63.30;;;;;;7368961;19;20364;-82
2023/06/21 11:54:33;;;;;;;4.82;2.67;;;30.80;62.20;;;;;;7372203;19;20073;-83
2023/06/21 11:56:59;;;;;;;5.93;4.10;;;30.60;62.60;;;;;;7377567;19;20298;-82
2023/06/21 11:59:26;;;;;;;10.95;9.88;;;30.40;62.90;;;;;;7374951;19;20374;-82
2023/06/21 12:01:53;;;;;;;12.43;11.20;;;30.10;63.00;;;;;;7377069;19;20015;-82
2023/06/21 12:04:26;;;;;;;6.45;4.50;;;30.20;63.50;;;;;;7375039;19;20105;-79
2023/06/21 12:06:56;;;;;;;7.22;6.00;;;30.70;61.60;;;;;;7372887;19;20022;-78
2023/06/21 12:09:22;;;;;;;5.10;4.35;;;30.70;62.30;;;;;;7374088;19;20007;-78
2023/06/21 12:11:48;;;;;;;8.05;5.20;;;30.60;62.60;;;;;;7375566;19;20049;-78
2023/06/21 12:14:19;;;;;;;13.10;11.38;;;30.80;62.20;;;;;;7372524;19;20105;-79
2023/06/21 12:16:51;;;;;;;;;;;31.40;61.50;;;;;;7373414;19;20675;-78
2023/06/21 12:19:22;;;;;;;39.47;35.95;;;31.70;58.70;;;;;;7373339;19;20395;-78
2023/06/21 12:21:49;;;;;;;29.42;27.05;;;31.90;59.00;;;;;;7375391;19;20014;-78
2023/06/21 12:24:26;;;;;;;10.18;9.05;;;31.90;57.70;;;;;;7377145;19;20348;-78
2023/06/21 12:26:55;;;;;;;5.78;5.18;;;31.80;55.00;;;;;;7374392;19;20018;-78
2023/06/21 12:29:21;;;;;;;15.82;14.45;;;31.80;57.20;;;;;;7374894;19;20030;-78
2023/06/21 12:31:48;;;;;;;5.03;4.07;;;31.60;56.80;;;;;;7375319;19;20014;-77
2023/06/21 12:34:18;;;;;;;8.65;7.75;;;31.90;56.60;;;;;;7375818;19;20011;-78
2023/06/21 12:36:46;;;;;;;5.00;3.77;;;32.40;55.60;;;;;;7373205;19;20380;-77
2023/06/21 12:39:14;;;;;;;5.63;3.47;;;32.50;56.40;;;;;;7373372;19;20815;-79
2023/06/21 12:41:43;;;;;;;6.00;4.43;;;32.40;54.90;;;;;;7375255;19;20092;-78
2023/06/21 12:44:23;;;;;;;5.40;4.00;;;31.90;54.10;;;;;;7362949;19;20530;-77